sensor_id;sensor_type;location;lat;lon;timestamp;P1;durP1;ratioP1;P2;durP2;ratioP2
9823;SDS011;4951;50.778;7.196;2022-12-17T00:00:28;93.70;;;33.03;;
9823;SDS011;4951;50.778;7.196;2022-12-17T00:03:12;71.90;;;27.23;;
9823;SDS011;4951;50.778;7.196;2022-12-17T00:05:57;86.40;;;32.43;;
9823;SDS011;4951;50.778;7.196;2022-12-17T00:08:43;84.77;;;30.77;;
9823;SDS011;4951;50.778;7.196;2022-12-17T00:11:32;74.40;;;29.90;;
9823;SDS011;4951;50.778;7.196;2022-12-17T00:14:16;74.40;;;29.07;;
9823;SDS011;4951;50.778;7.196;2022-12-17T00:17:01;72.77;;;28.10;;
9823;SDS011;4951;50.778;7.196;2022-12-17T00:19:48;76.50;;;31.60;;
9823;SDS011;4951;50.778;7.196;2022-12-17T00:22:29;85.73;;;31.13;;
9823;SDS011;4951;50.778;7.196;2022-12-17T00:25:15;89.87;;;33.27;;
9823;SDS011;4951;50.778;7.196;2022-12-17T00:28:00;69.87;;;28.17;;
9823;SDS011;4951;50.778;7.196;2022-12-17T00:30:49;74.87;;;30.93;;
9823;SDS011;4951;50.778;7.196;2022-12-17T00:33:34;74.17;;;29.30;;
9823;SDS011;4951;50.778;7.196;2022-12-17T00:36:19;75.90;;;29.57;;
9823;SDS011;4951;50.778;7.196;2022-12-17T00:39:03;72.47;;;29.33;;
9823;SDS011;4951;50.778;7.196;2022-12-17T00:41:50;69.83;;;29.17;;
9823;SDS011;4951;50.778;7.196;2022-12-17T00:44:34;65.47;;;27.17;;
9823;SDS011;4951;50.778;7.196;2022-12-17T00:47:19;74.80;;;27.53;;
9823;SDS011;4951;50.778;7.196;2022-12-17T00:50:04;82.47;;;30.30;;
9823;SDS011;4951;50.778;7.196;2022-12-17T00:52:50;67.73;;;27.40;;
9823;SDS011;4951;50.778;7.196;2022-12-17T00:55:35;81.27;;;30.83;;
9823;SDS011;4951;50.778;7.196;2022-12-17T00:58:23;74.77;;;27.50;;
9823;SDS011;4951;50.778;7.196;2022-12-17T01:01:09;71.83;;;29.10;;
9823;SDS011;4951;50.778;7.196;2022-12-17T01:03:53;74.90;;;30.13;;
9823;SDS011;4951;50.778;7.196;2022-12-17T01:06:38;90.67;;;31.17;;
9823;SDS011;4951;50.778;7.196;2022-12-17T01:09:28;82.63;;;30.30;;
9823;SDS011;4951;50.778;7.196;2022-12-17T01:12:13;87.20;;;29.60;;
9823;SDS011;4951;50.778;7.196;2022-12-17T01:14:59;86.67;;;30.83;;
9823;SDS011;4951;50.778;7.196;2022-12-17T01:17:44;85.03;;;29.23;;
9823;SDS011;4951;50.778;7.196;2022-12-17T01:20:28;87.87;;;31.97;;
9823;SDS011;4951;50.778;7.196;2022-12-17T01:23:14;76.63;;;28.37;;
9823;SDS011;4951;50.778;7.196;2022-12-17T01:26:00;80.77;;;29.73;;
9823;SDS011;4951;50.778;7.196;2022-12-17T01:28:45;88.57;;;31.77;;
9823;SDS011;4951;50.778;7.196;2022-12-17T01:31:31;87.30;;;30.17;;
9823;SDS011;4951;50.778;7.196;2022-12-17T01:34:16;71.83;;;27.07;;
9823;SDS011;4951;50.778;7.196;2022-12-17T01:37:01;77.13;;;28.47;;
9823;SDS011;4951;50.778;7.196;2022-12-17T01:39:48;77.47;;;28.77;;
9823;SDS011;4951;50.778;7.196;2022-12-17T01:42:37;77.97;;;29.63;;
9823;SDS011;4951;50.778;7.196;2022-12-17T01:45:22;80.60;;;28.67;;
9823;SDS011;4951;50.778;7.196;2022-12-17T01:48:12;77.27;;;29.83;;
9823;SDS011;4951;50.778;7.196;2022-12-17T01:50:59;71.93;;;28.33;;
9823;SDS011;4951;50.778;7.196;2022-12-17T01:53:46;64.83;;;27.10;;
9823;SDS011;4951;50.778;7.196;2022-12-17T01:56:28;69.20;;;26.83;;
9823;SDS011;4951;50.778;7.196;2022-12-17T01:59:11;74.63;;;28.80;;
9823;SDS011;4951;50.778;7.196;2022-12-17T02:01:57;76.30;;;28.77;;
9823;SDS011;4951;50.778;7.196;2022-12-17T02:04:44;73.77;;;27.27;;
9823;SDS011;4951;50.778;7.196;2022-12-17T02:07:32;77.00;;;27.33;;
9823;SDS011;4951;50.778;7.196;2022-12-17T02:10:33;92.93;;;31.37;;
9823;SDS011;4951;50.778;7.196;2022-12-17T02:13:26;70.47;;;28.20;;
9823;SDS011;4951;50.778;7.196;2022-12-17T02:16:17;75.97;;;27.50;;
9823;SDS011;4951;50.778;7.196;2022-12-17T02:19:06;64.17;;;25.63;;
9823;SDS011;4951;50.778;7.196;2022-12-17T02:22:08;74.37;;;27.27;;
9823;SDS011;4951;50.778;7.196;2022-12-17T02:25:12;76.73;;;27.43;;
9823;SDS011;4951;50.778;7.196;2022-12-17T02:28:05;72.77;;;26.07;;
9823;SDS011;4951;50.778;7.196;2022-12-17T02:30:50;84.53;;;29.70;;
9823;SDS011;4951;50.778;7.196;2022-12-17T02:33:36;89.97;;;27.37;;
9823;SDS011;4951;50.778;7.196;2022-12-17T02:36:21;79.20;;;26.73;;
9823;SDS011;4951;50.778;7.196;2022-12-17T02:39:08;86.07;;;27.87;;
9823;SDS011;4951;50.778;7.196;2022-12-17T02:41:53;91.37;;;31.17;;
9823;SDS011;4951;50.778;7.196;2022-12-17T02:44:42;70.30;;;24.80;;
9823;SDS011;4951;50.778;7.196;2022-12-17T02:47:29;82.43;;;26.40;;
9823;SDS011;4951;50.778;7.196;2022-12-17T02:50:18;86.07;;;29.07;;
9823;SDS011;4951;50.778;7.196;2022-12-17T02:53:03;103.20;;;30.70;;
9823;SDS011;4951;50.778;7.196;2022-12-17T02:55:49;71.77;;;25.57;;
9823;SDS011;4951;50.778;7.196;2022-12-17T02:58:36;78.33;;;27.53;;
9823;SDS011;4951;50.778;7.196;2022-12-17T03:01:22;84.30;;;29.87;;
9823;SDS011;4951;50.778;7.196;2022-12-17T03:04:06;76.67;;;26.70;;
9823;SDS011;4951;50.778;7.196;2022-12-17T03:06:51;87.57;;;30.17;;
9823;SDS011;4951;50.778;7.196;2022-12-17T03:09:35;75.23;;;26.97;;
9823;SDS011;4951;50.778;7.196;2022-12-17T03:12:21;66.20;;;26.10;;
9823;SDS011;4951;50.778;7.196;2022-12-17T03:15:06;67.70;;;25.37;;
9823;SDS011;4951;50.778;7.196;2022-12-17T03:17:52;68.30;;;25.93;;
9823;SDS011;4951;50.778;7.196;2022-12-17T03:20:38;87.97;;;28.40;;
9823;SDS011;4951;50.778;7.196;2022-12-17T03:23:25;84.77;;;28.83;;
9823;SDS011;4951;50.778;7.196;2022-12-17T03:26:09;72.13;;;27.87;;
9823;SDS011;4951;50.778;7.196;2022-12-17T03:28:56;77.23;;;26.47;;
9823;SDS011;4951;50.778;7.196;2022-12-17T03:31:41;69.83;;;27.53;;
9823;SDS011;4951;50.778;7.196;2022-12-17T03:34:28;70.13;;;26.53;;
9823;SDS011;4951;50.778;7.196;2022-12-17T03:37:12;66.23;;;27.07;;
9823;SDS011;4951;50.778;7.196;2022-12-17T03:39:57;71.60;;;27.97;;
9823;SDS011;4951;50.778;7.196;2022-12-17T03:42:41;68.27;;;28.23;;
9823;SDS011;4951;50.778;7.196;2022-12-17T03:45:26;59.77;;;26.03;;
9823;SDS011;4951;50.778;7.196;2022-12-17T03:48:11;63.73;;;24.90;;
9823;SDS011;4951;50.778;7.196;2022-12-17T03:50:58;61.77;;;25.73;;
9823;SDS011;4951;50.778;7.196;2022-12-17T03:53:44;58.40;;;25.40;;
9823;SDS011;4951;50.778;7.196;2022-12-17T03:56:29;60.87;;;26.60;;
9823;SDS011;4951;50.778;7.196;2022-12-17T03:59:14;63.83;;;26.30;;
9823;SDS011;4951;50.778;7.196;2022-12-17T04:01:59;59.53;;;25.67;;
9823;SDS011;4951;50.778;7.196;2022-12-17T04:04:44;59.17;;;25.47;;
9823;SDS011;4951;50.778;7.196;2022-12-17T04:07:32;57.63;;;24.53;;
9823;SDS011;4951;50.778;7.196;2022-12-17T04:10:17;54.33;;;24.20;;
9823;SDS011;4951;50.778;7.196;2022-12-17T04:13:01;59.07;;;24.97;;
9823;SDS011;4951;50.778;7.196;2022-12-17T04:15:47;56.57;;;24.93;;
9823;SDS011;4951;50.778;7.196;2022-12-17T04:18:31;56.73;;;26.10;;
9823;SDS011;4951;50.778;7.196;2022-12-17T04:21:16;59.87;;;25.47;;
9823;SDS011;4951;50.778;7.196;2022-12-17T04:24:02;52.03;;;25.53;;
9823;SDS011;4951;50.778;7.196;2022-12-17T04:26:47;61.60;;;26.77;;
9823;SDS011;4951;50.778;7.196;2022-12-17T04:29:31;55.17;;;24.97;;
9823;SDS011;4951;50.778;7.196;2022-12-17T04:32:24;52.53;;;24.73;;
9823;SDS011;4951;50.778;7.196;2022-12-17T04:35:09;55.90;;;26.40;;
9823;SDS011;4951;50.778;7.196;2022-12-17T04:38:02;56.87;;;25.20;;
9823;SDS011;4951;50.778;7.196;2022-12-17T04:40:50;54.37;;;26.60;;
9823;SDS011;4951;50.778;7.196;2022-12-17T04:43:35;56.27;;;25.33;;
9823;SDS011;4951;50.778;7.196;2022-12-17T04:46:19;56.90;;;25.93;;
9823;SDS011;4951;50.778;7.196;2022-12-17T04:49:04;54.63;;;26.37;;
9823;SDS011;4951;50.778;7.196;2022-12-17T04:51:49;47.70;;;24.43;;
9823;SDS011;4951;50.778;7.196;2022-12-17T04:54:34;52.87;;;25.23;;
9823;SDS011;4951;50.778;7.196;2022-12-17T04:57:20;53.40;;;24.43;;
9823;SDS011;4951;50.778;7.196;2022-12-17T05:00:05;50.27;;;23.80;;
9823;SDS011;4951;50.778;7.196;2022-12-17T05:02:50;55.63;;;24.43;;
9823;SDS011;4951;50.778;7.196;2022-12-17T05:05:33;49.20;;;23.57;;
9823;SDS011;4951;50.778;7.196;2022-12-17T05:08:18;55.87;;;23.57;;
9823;SDS011;4951;50.778;7.196;2022-12-17T05:11:03;53.17;;;25.87;;
9823;SDS011;4951;50.778;7.196;2022-12-17T05:13:49;55.80;;;25.50;;
9823;SDS011;4951;50.778;7.196;2022-12-17T05:16:34;46.83;;;21.73;;
9823;SDS011;4951;50.778;7.196;2022-12-17T05:19:18;45.73;;;22.27;;
9823;SDS011;4951;50.778;7.196;2022-12-17T05:22:03;58.97;;;25.40;;
9823;SDS011;4951;50.778;7.196;2022-12-17T05:24:49;51.50;;;24.27;;
9823;SDS011;4951;50.778;7.196;2022-12-17T05:27:46;53.23;;;23.10;;
9823;SDS011;4951;50.778;7.196;2022-12-17T05:30:34;53.17;;;23.33;;
9823;SDS011;4951;50.778;7.196;2022-12-17T05:33:19;54.67;;;23.77;;
9823;SDS011;4951;50.778;7.196;2022-12-17T05:36:04;52.57;;;23.87;;
9823;SDS011;4951;50.778;7.196;2022-12-17T05:38:49;48.23;;;21.73;;
9823;SDS011;4951;50.778;7.196;2022-12-17T05:41:34;50.70;;;24.13;;
9823;SDS011;4951;50.778;7.196;2022-12-17T05:44:19;55.00;;;23.83;;
9823;SDS011;4951;50.778;7.196;2022-12-17T05:47:16;50.17;;;23.17;;
9823;SDS011;4951;50.778;7.196;2022-12-17T05:50:12;49.03;;;22.80;;
9823;SDS011;4951;50.778;7.196;2022-12-17T05:52:59;46.57;;;23.63;;
9823;SDS011;4951;50.778;7.196;2022-12-17T05:55:47;55.13;;;25.27;;
9823;SDS011;4951;50.778;7.196;2022-12-17T05:58:32;51.07;;;23.60;;
9823;SDS011;4951;50.778;7.196;2022-12-17T06:01:16;50.20;;;23.43;;
9823;SDS011;4951;50.778;7.196;2022-12-17T06:04:02;52.47;;;22.00;;
9823;SDS011;4951;50.778;7.196;2022-12-17T06:06:48;50.20;;;24.83;;
9823;SDS011;4951;50.778;7.196;2022-12-17T06:09:32;48.27;;;22.30;;
9823;SDS011;4951;50.778;7.196;2022-12-17T06:12:17;46.60;;;22.47;;
9823;SDS011;4951;50.778;7.196;2022-12-17T06:15:02;53.50;;;24.63;;
9823;SDS011;4951;50.778;7.196;2022-12-17T06:17:56;49.47;;;24.03;;
9823;SDS011;4951;50.778;7.196;2022-12-17T06:20:41;44.83;;;21.47;;
9823;SDS011;4951;50.778;7.196;2022-12-17T06:23:27;45.30;;;22.37;;
9823;SDS011;4951;50.778;7.196;2022-12-17T06:26:11;48.87;;;23.47;;
9823;SDS011;4951;50.778;7.196;2022-12-17T06:28:56;46.33;;;22.47;;
9823;SDS011;4951;50.778;7.196;2022-12-17T06:31:41;47.37;;;23.40;;
9823;SDS011;4951;50.778;7.196;2022-12-17T06:34:27;48.23;;;21.87;;
9823;SDS011;4951;50.778;7.196;2022-12-17T06:37:13;48.40;;;22.70;;
9823;SDS011;4951;50.778;7.196;2022-12-17T06:39:58;50.97;;;23.20;;
9823;SDS011;4951;50.778;7.196;2022-12-17T06:42:50;43.30;;;22.03;;
9823;SDS011;4951;50.778;7.196;2022-12-17T06:45:38;46.03;;;21.73;;
9823;SDS011;4951;50.778;7.196;2022-12-17T06:48:27;48.10;;;23.00;;
9823;SDS011;4951;50.778;7.196;2022-12-17T06:51:12;49.97;;;24.13;;
9823;SDS011;4951;50.778;7.196;2022-12-17T06:53:58;41.67;;;23.43;;
9823;SDS011;4951;50.778;7.196;2022-12-17T06:56:43;37.83;;;20.33;;
9823;SDS011;4951;50.778;7.196;2022-12-17T06:59:27;42.60;;;20.00;;
9823;SDS011;4951;50.778;7.196;2022-12-17T07:02:12;41.73;;;20.50;;
9823;SDS011;4951;50.778;7.196;2022-12-17T07:04:57;36.17;;;19.30;;
9823;SDS011;4951;50.778;7.196;2022-12-17T07:07:41;46.33;;;21.97;;
9823;SDS011;4951;50.778;7.196;2022-12-17T07:10:27;38.70;;;19.57;;
9823;SDS011;4951;50.778;7.196;2022-12-17T07:13:12;37.73;;;20.53;;
9823;SDS011;4951;50.778;7.196;2022-12-17T07:15:57;39.50;;;19.80;;
9823;SDS011;4951;50.778;7.196;2022-12-17T07:18:41;42.07;;;19.47;;
9823;SDS011;4951;50.778;7.196;2022-12-17T07:21:25;36.47;;;20.00;;
9823;SDS011;4951;50.778;7.196;2022-12-17T07:24:10;38.77;;;20.27;;
9823;SDS011;4951;50.778;7.196;2022-12-17T07:26:57;43.67;;;20.37;;
9823;SDS011;4951;50.778;7.196;2022-12-17T07:29:41;38.80;;;19.70;;
9823;SDS011;4951;50.778;7.196;2022-12-17T07:32:29;33.47;;;19.30;;
9823;SDS011;4951;50.778;7.196;2022-12-17T07:35:14;35.37;;;18.33;;
9823;SDS011;4951;50.778;7.196;2022-12-17T07:37:59;35.70;;;19.30;;
9823;SDS011;4951;50.778;7.196;2022-12-17T07:40:44;35.57;;;19.23;;
9823;SDS011;4951;50.778;7.196;2022-12-17T07:43:30;36.20;;;18.80;;
9823;SDS011;4951;50.778;7.196;2022-12-17T07:46:15;38.57;;;19.57;;
9823;SDS011;4951;50.778;7.196;2022-12-17T07:48:59;36.37;;;18.10;;
9823;SDS011;4951;50.778;7.196;2022-12-17T07:51:44;35.67;;;19.40;;
9823;SDS011;4951;50.778;7.196;2022-12-17T07:54:29;37.40;;;19.57;;
9823;SDS011;4951;50.778;7.196;2022-12-17T07:57:13;33.07;;;18.73;;
9823;SDS011;4951;50.778;7.196;2022-12-17T07:59:59;35.93;;;18.47;;
9823;SDS011;4951;50.778;7.196;2022-12-17T08:02:43;33.30;;;18.10;;
9823;SDS011;4951;50.778;7.196;2022-12-17T08:05:28;24.37;;;13.07;;
9823;SDS011;4951;50.778;7.196;2022-12-17T08:08:13;24.63;;;12.27;;
9823;SDS011;4951;50.778;7.196;2022-12-17T08:11:03;22.87;;;13.67;;
9823;SDS011;4951;50.778;7.196;2022-12-17T08:13:48;22.17;;;12.83;;
9823;SDS011;4951;50.778;7.196;2022-12-17T08:16:34;23.03;;;13.37;;
9823;SDS011;4951;50.778;7.196;2022-12-17T08:19:19;21.03;;;11.07;;
9823;SDS011;4951;50.778;7.196;2022-12-17T08:22:03;19.73;;;11.50;;
9823;SDS011;4951;50.778;7.196;2022-12-17T08:24:48;17.93;;;11.73;;
9823;SDS011;4951;50.778;7.196;2022-12-17T08:27:32;19.53;;;11.70;;
9823;SDS011;4951;50.778;7.196;2022-12-17T08:30:17;18.90;;;11.67;;
9823;SDS011;4951;50.778;7.196;2022-12-17T08:33:03;18.00;;;10.67;;
9823;SDS011;4951;50.778;7.196;2022-12-17T08:35:51;17.43;;;11.07;;
9823;SDS011;4951;50.778;7.196;2022-12-17T08:38:36;22.70;;;13.40;;
9823;SDS011;4951;50.778;7.196;2022-12-17T08:41:21;19.83;;;11.87;;
9823;SDS011;4951;50.778;7.196;2022-12-17T08:44:05;22.93;;;14.20;;
9823;SDS011;4951;50.778;7.196;2022-12-17T08:46:50;23.17;;;14.57;;
9823;SDS011;4951;50.778;7.196;2022-12-17T08:49:36;28.53;;;15.40;;
9823;SDS011;4951;50.778;7.196;2022-12-17T08:52:21;29.67;;;17.03;;
9823;SDS011;4951;50.778;7.196;2022-12-17T08:55:05;29.60;;;15.63;;
9823;SDS011;4951;50.778;7.196;2022-12-17T08:57:52;27.63;;;16.30;;
9823;SDS011;4951;50.778;7.196;2022-12-17T09:00:37;32.93;;;17.53;;
9823;SDS011;4951;50.778;7.196;2022-12-17T09:03:22;32.23;;;17.47;;
9823;SDS011;4951;50.778;7.196;2022-12-17T09:06:08;29.93;;;17.13;;
9823;SDS011;4951;50.778;7.196;2022-12-17T09:08:55;26.50;;;16.03;;
9823;SDS011;4951;50.778;7.196;2022-12-17T09:11:40;29.70;;;16.70;;
9823;SDS011;4951;50.778;7.196;2022-12-17T09:14:28;31.20;;;17.53;;
9823;SDS011;4951;50.778;7.196;2022-12-17T09:17:13;26.30;;;15.50;;
9823;SDS011;4951;50.778;7.196;2022-12-17T09:20:06;28.30;;;17.00;;
9823;SDS011;4951;50.778;7.196;2022-12-17T09:22:52;28.93;;;16.27;;
9823;SDS011;4951;50.778;7.196;2022-12-17T09:25:37;33.10;;;17.97;;
9823;SDS011;4951;50.778;7.196;2022-12-17T09:28:21;27.50;;;16.47;;
9823;SDS011;4951;50.778;7.196;2022-12-17T09:31:06;27.57;;;16.10;;
9823;SDS011;4951;50.778;7.196;2022-12-17T09:33:51;28.70;;;15.23;;
9823;SDS011;4951;50.778;7.196;2022-12-17T09:36:35;23.47;;;14.83;;
9823;SDS011;4951;50.778;7.196;2022-12-17T09:39:23;24.63;;;15.80;;
9823;SDS011;4951;50.778;7.196;2022-12-17T09:42:11;21.00;;;12.73;;
9823;SDS011;4951;50.778;7.196;2022-12-17T09:45:03;23.20;;;12.77;;
9823;SDS011;4951;50.778;7.196;2022-12-17T09:47:57;18.70;;;12.53;;
9823;SDS011;4951;50.778;7.196;2022-12-17T09:50:50;23.10;;;13.13;;
9823;SDS011;4951;50.778;7.196;2022-12-17T09:53:36;21.20;;;12.93;;
9823;SDS011;4951;50.778;7.196;2022-12-17T09:56:24;21.47;;;12.83;;
9823;SDS011;4951;50.778;7.196;2022-12-17T09:59:15;21.20;;;13.23;;
9823;SDS011;4951;50.778;7.196;2022-12-17T10:02:06;25.47;;;14.20;;
9823;SDS011;4951;50.778;7.196;2022-12-17T10:04:57;22.37;;;12.57;;
9823;SDS011;4951;50.778;7.196;2022-12-17T10:07:44;22.03;;;13.87;;
9823;SDS011;4951;50.778;7.196;2022-12-17T10:10:31;21.87;;;13.97;;
9823;SDS011;4951;50.778;7.196;2022-12-17T10:13:19;22.40;;;13.67;;
9823;SDS011;4951;50.778;7.196;2022-12-17T10:16:15;24.63;;;13.60;;
9823;SDS011;4951;50.778;7.196;2022-12-17T10:19:04;24.73;;;14.47;;
9823;SDS011;4951;50.778;7.196;2022-12-17T10:22:04;25.77;;;14.50;;
9823;SDS011;4951;50.778;7.196;2022-12-17T10:24:50;23.23;;;13.47;;
9823;SDS011;4951;50.778;7.196;2022-12-17T10:27:35;20.77;;;14.10;;
9823;SDS011;4951;50.778;7.196;2022-12-17T10:30:21;19.50;;;12.37;;
9823;SDS011;4951;50.778;7.196;2022-12-17T10:33:18;21.20;;;13.87;;
9823;SDS011;4951;50.778;7.196;2022-12-17T10:36:04;21.00;;;13.03;;
9823;SDS011;4951;50.778;7.196;2022-12-17T10:39:03;23.73;;;13.83;;
9823;SDS011;4951;50.778;7.196;2022-12-17T10:41:49;22.87;;;14.57;;
9823;SDS011;4951;50.778;7.196;2022-12-17T10:44:34;21.47;;;13.63;;
9823;SDS011;4951;50.778;7.196;2022-12-17T10:47:22;20.50;;;13.10;;
9823;SDS011;4951;50.778;7.196;2022-12-17T10:50:17;23.20;;;13.87;;
9823;SDS011;4951;50.778;7.196;2022-12-17T10:53:05;21.80;;;12.37;;
9823;SDS011;4951;50.778;7.196;2022-12-17T10:56:01;20.40;;;12.80;;
9823;SDS011;4951;50.778;7.196;2022-12-17T10:58:59;23.17;;;14.53;;
9823;SDS011;4951;50.778;7.196;2022-12-17T11:01:44;24.93;;;13.97;;
9823;SDS011;4951;50.778;7.196;2022-12-17T11:04:30;22.27;;;14.20;;
9823;SDS011;4951;50.778;7.196;2022-12-17T11:07:17;23.77;;;13.50;;
9823;SDS011;4951;50.778;7.196;2022-12-17T11:10:05;23.50;;;14.37;;
9823;SDS011;4951;50.778;7.196;2022-12-17T11:12:57;21.50;;;13.40;;
9823;SDS011;4951;50.778;7.196;2022-12-17T11:15:47;22.70;;;13.40;;
9823;SDS011;4951;50.778;7.196;2022-12-17T11:18:36;24.07;;;13.37;;
9823;SDS011;4951;50.778;7.196;2022-12-17T11:21:30;24.47;;;13.97;;
9823;SDS011;4951;50.778;7.196;2022-12-17T11:24:20;24.17;;;15.03;;
9823;SDS011;4951;50.778;7.196;2022-12-17T11:27:08;23.10;;;14.27;;
9823;SDS011;4951;50.778;7.196;2022-12-17T11:29:59;22.90;;;14.60;;
9823;SDS011;4951;50.778;7.196;2022-12-17T11:32:46;29.07;;;15.30;;
9823;SDS011;4951;50.778;7.196;2022-12-17T11:35:45;22.83;;;14.50;;
9823;SDS011;4951;50.778;7.196;2022-12-17T11:38:38;24.00;;;15.33;;
9823;SDS011;4951;50.778;7.196;2022-12-17T11:41:43;22.97;;;15.00;;
9823;SDS011;4951;50.778;7.196;2022-12-17T11:44:36;24.67;;;15.67;;
9823;SDS011;4951;50.778;7.196;2022-12-17T11:47:31;27.47;;;15.20;;
9823;SDS011;4951;50.778;7.196;2022-12-17T11:50:26;23.43;;;15.43;;
9823;SDS011;4951;50.778;7.196;2022-12-17T11:53:30;22.23;;;13.77;;
9823;SDS011;4951;50.778;7.196;2022-12-17T11:56:28;22.13;;;14.17;;
9823;SDS011;4951;50.778;7.196;2022-12-17T11:59:20;20.23;;;14.37;;
9823;SDS011;4951;50.778;7.196;2022-12-17T12:02:13;22.33;;;15.47;;
9823;SDS011;4951;50.778;7.196;2022-12-17T12:05:16;23.40;;;15.63;;
9823;SDS011;4951;50.778;7.196;2022-12-17T12:08:15;24.10;;;15.50;;
9823;SDS011;4951;50.778;7.196;2022-12-17T12:11:10;19.97;;;14.43;;
9823;SDS011;4951;50.778;7.196;2022-12-17T12:14:02;21.97;;;14.87;;
9823;SDS011;4951;50.778;7.196;2022-12-17T12:16:54;24.27;;;15.07;;
9823;SDS011;4951;50.778;7.196;2022-12-17T12:19:44;20.93;;;14.97;;
9823;SDS011;4951;50.778;7.196;2022-12-17T12:22:36;23.23;;;15.47;;
9823;SDS011;4951;50.778;7.196;2022-12-17T12:25:31;22.93;;;15.83;;
9823;SDS011;4951;50.778;7.196;2022-12-17T12:28:25;21.10;;;15.00;;
9823;SDS011;4951;50.778;7.196;2022-12-17T12:31:19;26.27;;;15.70;;
9823;SDS011;4951;50.778;7.196;2022-12-17T12:34:13;23.20;;;15.97;;
9823;SDS011;4951;50.778;7.196;2022-12-17T12:37:03;21.63;;;15.00;;
9823;SDS011;4951;50.778;7.196;2022-12-17T12:39:51;23.57;;;15.50;;
9823;SDS011;4951;50.778;7.196;2022-12-17T12:42:44;19.70;;;15.27;;
9823;SDS011;4951;50.778;7.196;2022-12-17T12:45:38;21.57;;;15.33;;
9823;SDS011;4951;50.778;7.196;2022-12-17T12:48:33;20.87;;;14.80;;
9823;SDS011;4951;50.778;7.196;2022-12-17T12:51:25;19.17;;;13.80;;
9823;SDS011;4951;50.778;7.196;2022-12-17T12:54:27;20.10;;;14.33;;
9823;SDS011;4951;50.778;7.196;2022-12-17T12:57:26;18.13;;;13.90;;
9823;SDS011;4951;50.778;7.196;2022-12-17T13:03:26;19.40;;;13.93;;
9823;SDS011;4951;50.778;7.196;2022-12-17T13:06:13;20.00;;;14.37;;
9823;SDS011;4951;50.778;7.196;2022-12-17T13:09:03;18.67;;;13.93;;
9823;SDS011;4951;50.778;7.196;2022-12-17T13:11:35;17.70;;;12.87;;
9823;SDS011;4951;50.778;7.196;2022-12-17T13:14:06;21.73;;;15.07;;
9823;SDS011;4951;50.778;7.196;2022-12-17T13:16:48;19.80;;;13.87;;
9823;SDS011;4951;50.778;7.196;2022-12-17T13:19:33;17.77;;;12.87;;
9823;SDS011;4951;50.778;7.196;2022-12-17T13:22:09;18.13;;;12.30;;
9823;SDS011;4951;50.778;7.196;2022-12-17T13:24:37;18.67;;;13.33;;
9823;SDS011;4951;50.778;7.196;2022-12-17T13:27:04;18.00;;;13.43;;
9823;SDS011;4951;50.778;7.196;2022-12-17T13:29:46;21.73;;;14.10;;
9823;SDS011;4951;50.778;7.196;2022-12-17T13:32:16;19.43;;;14.07;;
9823;SDS011;4951;50.778;7.196;2022-12-17T13:34:50;17.87;;;12.70;;
9823;SDS011;4951;50.778;7.196;2022-12-17T13:37:29;18.03;;;13.40;;
9823;SDS011;4951;50.778;7.196;2022-12-17T13:40:11;18.77;;;14.00;;
9823;SDS011;4951;50.778;7.196;2022-12-17T13:42:47;18.90;;;13.90;;
9823;SDS011;4951;50.778;7.196;2022-12-17T13:45:16;17.87;;;13.60;;
9823;SDS011;4951;50.778;7.196;2022-12-17T13:47:51;15.83;;;12.43;;
9823;SDS011;4951;50.778;7.196;2022-12-17T13:50:22;19.67;;;12.30;;
9823;SDS011;4951;50.778;7.196;2022-12-17T13:52:53;17.73;;;12.43;;
9823;SDS011;4951;50.778;7.196;2022-12-17T13:55:21;16.50;;;12.33;;
9823;SDS011;4951;50.778;7.196;2022-12-17T13:57:50;17.67;;;13.03;;
9823;SDS011;4951;50.778;7.196;2022-12-17T14:00:20;16.60;;;12.87;;
9823;SDS011;4951;50.778;7.196;2022-12-17T14:02:48;17.17;;;13.00;;
9823;SDS011;4951;50.778;7.196;2022-12-17T14:05:22;16.13;;;12.30;;
9823;SDS011;4951;50.778;7.196;2022-12-17T14:07:51;16.17;;;11.97;;
9823;SDS011;4951;50.778;7.196;2022-12-17T14:10:19;16.93;;;12.77;;
9823;SDS011;4951;50.778;7.196;2022-12-17T14:12:47;15.63;;;10.97;;
9823;SDS011;4951;50.778;7.196;2022-12-17T14:15:19;14.57;;;10.67;;
9823;SDS011;4951;50.778;7.196;2022-12-17T14:17:50;16.33;;;11.77;;
9823;SDS011;4951;50.778;7.196;2022-12-17T14:20:19;15.77;;;11.57;;
9823;SDS011;4951;50.778;7.196;2022-12-17T14:22:50;16.93;;;11.80;;
9823;SDS011;4951;50.778;7.196;2022-12-17T14:25:20;13.30;;;9.70;;
9823;SDS011;4951;50.778;7.196;2022-12-17T14:27:51;15.53;;;10.73;;
9823;SDS011;4951;50.778;7.196;2022-12-17T14:30:21;15.63;;;11.43;;
9823;SDS011;4951;50.778;7.196;2022-12-17T14:32:49;16.80;;;11.70;;
9823;SDS011;4951;50.778;7.196;2022-12-17T14:35:25;16.80;;;11.50;;
9823;SDS011;4951;50.778;7.196;2022-12-17T14:37:54;16.80;;;11.63;;
9823;SDS011;4951;50.778;7.196;2022-12-17T14:40:22;14.83;;;11.00;;
9823;SDS011;4951;50.778;7.196;2022-12-17T14:42:51;15.83;;;10.57;;
9823;SDS011;4951;50.778;7.196;2022-12-17T14:45:20;16.33;;;11.53;;
9823;SDS011;4951;50.778;7.196;2022-12-17T14:47:53;16.63;;;12.03;;
9823;SDS011;4951;50.778;7.196;2022-12-17T14:50:23;19.93;;;11.70;;
9823;SDS011;4951;50.778;7.196;2022-12-17T14:52:58;15.73;;;11.80;;
9823;SDS011;4951;50.778;7.196;2022-12-17T14:55:28;15.20;;;11.43;;
9823;SDS011;4951;50.778;7.196;2022-12-17T15:00:44;16.87;;;11.63;;
9823;SDS011;4951;50.778;7.196;2022-12-17T15:03:18;15.80;;;11.67;;
9823;SDS011;4951;50.778;7.196;2022-12-17T15:05:51;16.73;;;11.53;;
9823;SDS011;4951;50.778;7.196;2022-12-17T15:08:21;16.53;;;11.87;;
9823;SDS011;4951;50.778;7.196;2022-12-17T15:10:49;18.33;;;13.13;;
9823;SDS011;4951;50.778;7.196;2022-12-17T15:13:17;17.13;;;11.67;;
9823;SDS011;4951;50.778;7.196;2022-12-17T15:15:45;18.57;;;11.50;;
9823;SDS011;4951;50.778;7.196;2022-12-17T15:18:12;16.70;;;10.70;;
9823;SDS011;4951;50.778;7.196;2022-12-17T15:20:39;16.93;;;12.50;;
9823;SDS011;4951;50.778;7.196;2022-12-17T15:23:09;19.07;;;11.93;;
9823;SDS011;4951;50.778;7.196;2022-12-17T15:25:40;19.57;;;13.17;;
9823;SDS011;4951;50.778;7.196;2022-12-17T15:28:08;18.93;;;13.53;;
9823;SDS011;4951;50.778;7.196;2022-12-17T15:30:36;19.80;;;13.00;;
9823;SDS011;4951;50.778;7.196;2022-12-17T15:33:04;20.67;;;14.37;;
9823;SDS011;4951;50.778;7.196;2022-12-17T15:35:31;20.90;;;14.63;;
9823;SDS011;4951;50.778;7.196;2022-12-17T15:37:59;20.30;;;14.60;;
9823;SDS011;4951;50.778;7.196;2022-12-17T15:40:28;20.93;;;13.10;;
9823;SDS011;4951;50.778;7.196;2022-12-17T15:42:55;21.13;;;14.20;;
9823;SDS011;4951;50.778;7.196;2022-12-17T15:45:38;20.53;;;14.20;;
9823;SDS011;4951;50.778;7.196;2022-12-17T15:48:06;22.30;;;15.80;;
9823;SDS011;4951;50.778;7.196;2022-12-17T15:50:34;24.70;;;15.93;;
9823;SDS011;4951;50.778;7.196;2022-12-17T15:53:02;27.00;;;16.97;;
9823;SDS011;4951;50.778;7.196;2022-12-17T15:55:30;21.43;;;14.47;;
9823;SDS011;4951;50.778;7.196;2022-12-17T15:57:58;24.10;;;13.57;;
9823;SDS011;4951;50.778;7.196;2022-12-17T16:00:25;22.87;;;15.83;;
9823;SDS011;4951;50.778;7.196;2022-12-17T16:02:53;23.97;;;16.23;;
9823;SDS011;4951;50.778;7.196;2022-12-17T16:05:20;23.03;;;13.27;;
9823;SDS011;4951;50.778;7.196;2022-12-17T16:07:48;19.77;;;13.83;;
9823;SDS011;4951;50.778;7.196;2022-12-17T16:10:15;23.23;;;14.00;;
9823;SDS011;4951;50.778;7.196;2022-12-17T16:12:44;23.50;;;16.13;;
9823;SDS011;4951;50.778;7.196;2022-12-17T16:15:12;24.60;;;15.73;;
9823;SDS011;4951;50.778;7.196;2022-12-17T16:17:39;23.00;;;14.80;;
9823;SDS011;4951;50.778;7.196;2022-12-17T16:20:06;24.20;;;15.10;;
9823;SDS011;4951;50.778;7.196;2022-12-17T16:22:34;24.17;;;15.83;;
9823;SDS011;4951;50.778;7.196;2022-12-17T16:25:02;25.50;;;17.50;;
9823;SDS011;4951;50.778;7.196;2022-12-17T16:27:29;26.23;;;16.80;;
9823;SDS011;4951;50.778;7.196;2022-12-17T16:29:59;25.27;;;17.70;;
9823;SDS011;4951;50.778;7.196;2022-12-17T16:32:27;28.10;;;18.30;;